createdAt,value
2018-09-12T00:02:12.322Z,93.10
2018-09-12T00:04:40.816Z,93.00
2018-09-12T00:07:09.347Z,93.80
2018-09-12T00:09:37.896Z,94.00
2018-09-12T00:12:06.473Z,94.20
2018-09-12T00:14:34.998Z,94.40
2018-09-12T00:17:03.585Z,94.80
2018-09-12T00:19:32.682Z,95.10
2018-09-12T00:22:01.246Z,95.40
2018-09-12T00:24:29.837Z,95.40
2018-09-12T00:26:58.418Z,95.70
2018-09-12T00:29:26.989Z,95.70
2018-09-12T00:31:55.559Z,95.90
2018-09-12T00:34:24.100Z,95.80
2018-09-12T00:36:52.665Z,96.00
2018-09-12T00:39:21.221Z,96.00
2018-09-12T00:41:49.804Z,95.90
2018-09-12T00:44:18.361Z,96.00
2018-09-12T00:46:46.910Z,96.40
2018-09-12T00:49:15.470Z,96.80
2018-09-12T00:51:44.038Z,96.90
2018-09-12T00:54:12.586Z,96.90
2018-09-12T00:56:41.157Z,97.30
2018-09-12T00:59:09.949Z,97.40
2018-09-12T01:01:38.490Z,97.30
2018-09-12T01:04:07.080Z,97.50
2018-09-12T01:06:35.665Z,97.90
2018-09-12T01:09:05.170Z,98.20
2018-09-12T01:11:33.866Z,98.30
2018-09-12T01:14:03.100Z,98.60
2018-09-12T01:16:34.074Z,98.60
2018-09-12T01:19:02.993Z,98.80
2018-09-12T01:21:31.561Z,99.10
2018-09-12T01:24:00.277Z,99.20
2018-09-12T01:26:28.866Z,99.40
2018-09-12T01:28:57.354Z,99.10
2018-09-12T01:31:26.137Z,99.10
2018-09-12T01:33:54.651Z,99.00
2018-09-12T01:36:23.233Z,99.00
2018-09-12T01:38:51.775Z,99.10
2018-09-12T01:41:20.349Z,99.00
2018-09-12T01:43:48.893Z,99.10
2018-09-12T01:46:17.455Z,99.30
2018-09-12T01:48:45.993Z,99.40
2018-09-12T01:51:14.540Z,99.40
2018-09-12T01:53:43.066Z,99.50
2018-09-12T01:56:11.590Z,99.20
2018-09-12T01:58:40.078Z,99.60
2018-09-12T02:01:08.743Z,99.90
2018-09-12T02:03:37.242Z,99.80
2018-09-12T02:06:05.798Z,99.70
2018-09-12T02:08:34.318Z,99.40
2018-09-12T02:11:02.917Z,99.30
2018-09-12T02:13:31.435Z,99.20
2018-09-12T02:15:59.998Z,99.40
2018-09-12T02:18:28.560Z,99.40
2018-09-12T02:20:57.365Z,99.70
2018-09-12T02:23:25.930Z,99.90
2018-09-12T02:25:54.467Z,99.90
2018-09-12T02:28:22.980Z,99.90
2018-09-12T02:30:51.611Z,99.90
2018-09-12T02:33:20.206Z,99.90
2018-09-12T02:35:54.015Z,99.90
2018-09-12T02:38:22.579Z,99.90
2018-09-12T02:40:51.185Z,99.90
2018-09-12T02:43:19.689Z,99.90
2018-09-12T02:45:48.254Z,99.90
2018-09-12T02:48:16.818Z,99.90
2018-09-12T02:50:45.441Z,99.90
2018-09-12T02:53:13.989Z,99.90
2018-09-12T02:55:42.549Z,99.90
2018-09-12T02:58:11.090Z,99.90
2018-09-12T03:00:39.670Z,99.90
2018-09-12T03:03:08.306Z,99.90
2018-09-12T03:05:37.551Z,99.90
2018-09-12T03:08:06.111Z,99.90
2018-09-12T03:10:34.630Z,99.90
2018-09-12T03:13:03.478Z,99.90
2018-09-12T03:15:32.003Z,99.90
2018-09-12T03:18:00.542Z,99.90
2018-09-12T03:20:29.116Z,99.90
2018-09-12T03:22:57.686Z,99.90
2018-09-12T03:25:26.194Z,99.90
2018-09-12T03:27:54.755Z,99.90
2018-09-12T03:30:23.297Z,99.90
2018-09-12T03:32:51.979Z,99.90
2018-09-12T03:35:20.533Z,99.90
2018-09-12T03:37:49.058Z,99.90
2018-09-12T03:40:17.589Z,99.90
2018-09-12T03:42:46.146Z,99.90
2018-09-12T03:45:14.659Z,99.90
2018-09-12T03:47:43.203Z,99.90
2018-09-12T03:50:11.793Z,99.90
2018-09-12T03:52:40.340Z,99.90
2018-09-12T03:55:08.904Z,99.90
2018-09-12T03:57:37.474Z,99.90
2018-09-12T04:00:06.875Z,99.90
2018-09-12T04:02:35.533Z,99.90
2018-09-12T04:05:04.150Z,99.90
2018-09-12T04:07:32.683Z,99.90
2018-09-12T04:10:01.439Z,99.90
2018-09-12T04:12:30.065Z,99.90
2018-09-12T04:14:58.566Z,99.90
2018-09-12T04:17:31.512Z,99.90
2018-09-12T04:20:00.030Z,99.90
2018-09-12T04:22:29.172Z,99.90
2018-09-12T04:24:57.791Z,99.90
2018-09-12T04:27:26.442Z,99.90
2018-09-12T04:29:55.513Z,99.90
2018-09-12T04:32:24.822Z,99.90
2018-09-12T04:34:53.378Z,99.90
2018-09-12T04:37:21.936Z,99.90
2018-09-12T04:39:50.542Z,99.90
2018-09-12T04:42:19.730Z,99.90
2018-09-12T04:44:48.472Z,99.90
2018-09-12T04:47:17.094Z,99.90
2018-09-12T04:49:45.638Z,99.90
2018-09-12T04:52:14.231Z,99.90
2018-09-12T04:54:44.410Z,99.90
2018-09-12T04:57:13.398Z,99.90
2018-09-12T04:59:42.193Z,99.90
2018-09-12T05:02:11.563Z,99.90
2018-09-12T05:04:40.089Z,99.90
2018-09-12T05:07:08.598Z,99.90
2018-09-12T05:09:37.117Z,99.90
2018-09-12T05:12:05.687Z,99.90
2018-09-12T05:14:34.956Z,99.90
2018-09-12T05:17:03.511Z,99.90
2018-09-12T05:19:32.069Z,99.90
2018-09-12T05:22:00.666Z,99.90
2018-09-12T05:24:29.259Z,99.90
2018-09-12T05:26:57.806Z,99.90
2018-09-12T05:29:26.496Z,99.90
2018-09-12T05:31:55.082Z,99.90
2018-09-12T05:34:24.657Z,99.90
2018-09-12T05:36:53.167Z,99.90
2018-09-12T05:39:21.694Z,99.90
2018-09-12T05:41:50.240Z,99.90
2018-09-12T05:44:23.677Z,99.90
2018-09-12T05:46:53.115Z,99.90
2018-09-12T05:49:21.653Z,99.90
2018-09-12T05:51:50.259Z,99.90
2018-09-12T05:54:18.793Z,99.90
2018-09-12T05:56:47.361Z,99.90
2018-09-12T05:59:15.907Z,99.90
2018-09-12T06:01:44.420Z,99.90
2018-09-12T06:04:12.985Z,99.90
2018-09-12T06:06:41.627Z,99.90
2018-09-12T06:09:10.722Z,99.90
2018-09-12T06:11:39.266Z,99.90
2018-09-12T06:14:07.868Z,99.90
2018-09-12T06:16:36.430Z,99.90
2018-09-12T06:19:12.194Z,99.90
2018-09-12T06:21:40.749Z,99.90
2018-09-12T06:24:09.318Z,99.90
2018-09-12T06:26:37.891Z,99.90
2018-09-12T06:29:06.483Z,99.90
2018-09-12T06:31:35.030Z,99.90
2018-09-12T06:34:03.653Z,99.90
2018-09-12T06:36:32.550Z,99.90
2018-09-12T06:39:01.114Z,99.70
2018-09-12T06:41:30.002Z,98.90
2018-09-12T06:43:58.534Z,97.80
2018-09-12T06:46:27.010Z,97.20
2018-09-12T06:48:55.521Z,96.30
2018-09-12T06:51:24.312Z,95.10
2018-09-12T06:53:53.542Z,94.40
2018-09-12T06:56:22.105Z,93.50
2018-09-12T06:58:50.615Z,92.80
2018-09-12T07:01:19.141Z,92.10
2018-09-12T07:03:47.755Z,91.80
2018-09-12T07:06:16.285Z,91.00
2018-09-12T07:08:45.234Z,90.00
2018-09-12T07:11:13.913Z,88.10
2018-09-12T07:13:42.414Z,87.00
2018-09-12T07:16:11.320Z,83.70
2018-09-12T07:18:39.850Z,80.00
2018-09-12T07:21:08.412Z,77.70
2018-09-12T07:23:36.948Z,70.00
2018-09-12T07:26:05.563Z,51.10
2018-09-12T07:28:34.116Z,42.00
2018-09-12T07:31:02.759Z,35.90
2018-09-12T07:33:31.339Z,30.00
2018-09-12T07:35:59.878Z,27.80
2018-09-12T07:38:28.393Z,26.30
2018-09-12T07:40:56.930Z,24.30
2018-09-12T07:43:25.454Z,23.30
2018-09-12T07:45:53.998Z,22.50
2018-09-12T07:48:22.586Z,22.30
2018-09-12T07:50:51.139Z,21.40
2018-09-12T07:53:20.055Z,21.50
2018-09-12T07:55:48.625Z,20.70
2018-09-12T07:58:18.131Z,20.20
2018-09-12T08:00:46.660Z,20.20
2018-09-12T08:03:15.208Z,19.30
2018-09-12T08:05:43.737Z,18.60
2018-09-12T08:08:12.310Z,18.80
2018-09-12T08:10:41.063Z,18.80
2018-09-12T08:13:09.574Z,17.70
2018-09-12T08:15:38.199Z,18.50
2018-09-12T08:18:06.725Z,17.40
2018-09-12T08:20:35.282Z,17.10
2018-09-12T08:23:03.945Z,15.90
2018-09-12T08:25:32.512Z,16.30
2018-09-12T08:28:01.048Z,15.30
2018-09-12T08:30:29.621Z,14.90
2018-09-12T08:32:58.187Z,14.50
2018-09-12T08:35:26.720Z,15.00
2018-09-12T08:37:55.280Z,14.00
2018-09-12T08:40:23.900Z,14.80
2018-09-12T08:43:55.166Z,15.40
2018-09-12T08:46:23.711Z,14.80
2018-09-12T08:48:52.247Z,14.30
2018-09-12T08:51:20.947Z,13.40
2018-09-12T08:53:49.474Z,13.30
2018-09-12T08:56:17.991Z,13.90
2018-09-12T08:58:46.495Z,13.80
2018-09-12T09:01:15.091Z,13.50
2018-09-12T09:03:43.595Z,13.60
2018-09-12T09:06:12.206Z,13.00
2018-09-12T09:08:40.808Z,12.90
2018-09-12T09:11:09.615Z,12.60
2018-09-12T09:13:38.172Z,12.00
2018-09-12T09:16:06.752Z,11.70
2018-09-12T09:18:35.314Z,11.60
2018-09-12T09:21:03.865Z,11.70
2018-09-12T09:23:32.455Z,11.90
2018-09-12T09:26:00.956Z,11.20
2018-09-12T09:28:29.542Z,11.80
2018-09-12T09:30:58.402Z,12.00
2018-09-12T09:33:26.922Z,11.00
2018-09-12T09:35:55.422Z,11.00
2018-09-12T09:38:23.998Z,11.80
2018-09-12T09:40:52.558Z,11.30
2018-09-12T09:43:21.138Z,11.90
2018-09-12T09:45:49.743Z,11.40
2018-09-12T09:48:18.290Z,11.10
2018-09-12T09:50:46.834Z,11.50
2018-09-12T09:53:15.361Z,11.50
2018-09-12T09:55:43.904Z,10.30
2018-09-12T09:58:12.451Z,9.90
2018-09-12T10:00:46.264Z,11.00
2018-09-12T10:03:20.076Z,11.10
2018-09-12T10:05:53.960Z,10.80
2018-09-12T10:08:27.801Z,10.40
2018-09-12T10:10:56.659Z,10.10
2018-09-12T10:13:25.178Z,10.70
2018-09-12T10:15:53.769Z,9.80
2018-09-12T10:18:22.317Z,9.70
2018-09-12T10:20:51.173Z,9.40
2018-09-12T10:23:21.879Z,10.60
2018-09-12T10:25:50.480Z,9.40
2018-09-12T10:28:19.287Z,9.50
2018-09-12T10:30:48.314Z,10.40
2018-09-12T10:33:17.160Z,11.80
2018-09-12T10:35:45.774Z,11.00
2018-09-12T10:38:14.284Z,11.20
2018-09-12T10:40:43.038Z,10.60
2018-09-12T10:43:11.599Z,10.90
2018-09-12T10:45:40.192Z,11.50
2018-09-12T10:48:08.700Z,12.40
2018-09-12T10:50:37.238Z,11.70
2018-09-12T10:53:05.843Z,11.30
2018-09-12T10:55:34.394Z,11.00
2018-09-12T10:58:02.939Z,12.00
2018-09-12T11:00:31.471Z,11.50
2018-09-12T11:03:00.031Z,11.80
2018-09-12T11:05:28.690Z,11.10
2018-09-12T11:07:57.954Z,10.60
2018-09-12T11:10:26.565Z,11.50
2018-09-12T11:12:55.183Z,11.40
2018-09-12T11:15:23.811Z,11.30
2018-09-12T11:17:52.283Z,12.20
2018-09-12T11:20:20.845Z,12.30
2018-09-12T11:22:49.455Z,12.40
2018-09-12T11:25:17.984Z,12.10
2018-09-12T11:27:46.713Z,12.50
2018-09-12T11:30:15.285Z,13.20
2018-09-12T11:32:43.798Z,13.30
2018-09-12T11:35:12.423Z,12.60
2018-09-12T11:37:40.928Z,13.70
2018-09-12T11:40:09.662Z,14.30
2018-09-12T11:42:38.315Z,14.00
2018-09-12T11:45:06.850Z,14.20
2018-09-12T11:47:35.428Z,14.40
2018-09-12T11:50:04.002Z,14.70
2018-09-12T11:52:32.738Z,15.90
2018-09-12T11:55:01.480Z,16.30
2018-09-12T11:57:30.052Z,15.90
2018-09-12T11:59:58.633Z,16.60
2018-09-12T12:02:27.275Z,16.60
2018-09-12T12:04:55.806Z,17.60
2018-09-12T12:07:24.693Z,18.80
2018-09-12T12:09:53.374Z,19.80
2018-09-12T12:12:21.925Z,21.30
2018-09-12T12:14:50.666Z,21.80
2018-09-12T12:17:19.173Z,22.80
2018-09-12T12:19:47.764Z,24.00
2018-09-12T12:22:16.290Z,25.00
2018-09-12T12:24:44.807Z,24.90
2018-09-12T12:27:13.344Z,25.70
2018-09-12T12:29:41.842Z,26.50
2018-09-12T12:32:11.867Z,26.00
2018-09-12T12:34:40.577Z,25.00
2018-09-12T12:37:09.301Z,25.80
2018-09-12T12:39:37.880Z,25.40
2018-09-12T12:42:06.827Z,25.50
2018-09-12T12:44:35.411Z,26.20
2018-09-12T12:47:03.909Z,26.20
2018-09-12T12:49:32.455Z,25.60
2018-09-12T12:52:01.135Z,26.00
2018-09-12T12:54:29.629Z,26.10
2018-09-12T12:56:58.197Z,25.90
2018-09-12T12:59:26.677Z,25.10
2018-09-12T13:01:56.260Z,25.00
2018-09-12T13:04:24.810Z,25.40
2018-09-12T13:06:53.398Z,25.70
2018-09-12T13:09:21.950Z,25.90
2018-09-12T13:11:50.561Z,26.40
2018-09-12T13:14:19.081Z,25.90
2018-09-12T13:16:47.606Z,25.00
2018-09-12T13:19:16.159Z,24.20
2018-09-12T13:21:45.019Z,23.50
2018-09-12T13:24:13.406Z,23.50
2018-09-12T13:26:41.993Z,23.60
2018-09-12T13:29:10.649Z,23.10
2018-09-12T13:31:39.201Z,22.60
2018-09-12T13:34:09.366Z,23.10
2018-09-12T13:36:37.818Z,22.30
2018-09-12T13:39:10.294Z,22.30
2018-09-12T13:41:39.489Z,21.60
2018-09-12T13:44:08.124Z,21.50
2018-09-12T13:46:36.890Z,22.00
2018-09-12T13:49:06.355Z,21.30
2018-09-12T13:51:35.307Z,21.20
2018-09-12T13:54:03.901Z,20.90
2018-09-12T13:56:33.062Z,21.70
2018-09-12T13:59:01.695Z,20.90
2018-09-12T14:01:30.450Z,21.70
2018-09-12T14:03:59.000Z,21.50
2018-09-12T14:06:27.544Z,22.40
2018-09-12T14:08:56.183Z,22.50
2018-09-12T14:11:25.470Z,22.10
2018-09-12T14:13:54.037Z,21.80
2018-09-12T14:16:22.730Z,22.20
2018-09-12T14:18:51.509Z,22.80
2018-09-12T14:21:21.837Z,22.40
2018-09-12T14:23:50.669Z,22.70
2018-09-12T14:26:19.144Z,23.40
2018-09-12T14:28:47.713Z,23.50
2018-09-12T14:31:16.258Z,23.60
2018-09-12T14:33:44.809Z,24.40
2018-09-12T14:36:13.417Z,23.50
2018-09-12T14:38:42.039Z,24.20
2018-09-12T14:41:10.827Z,25.20
2018-09-12T14:43:39.366Z,24.30
2018-09-12T14:46:08.546Z,25.40
2018-09-12T14:48:37.054Z,25.00
2018-09-12T14:51:05.797Z,25.50
2018-09-12T14:53:35.796Z,25.80
2018-09-12T14:56:05.163Z,26.40
2018-09-12T14:58:33.892Z,26.90
2018-09-12T15:01:02.445Z,27.40
2018-09-12T15:03:30.923Z,27.00
2018-09-12T15:05:59.566Z,27.00
2018-09-12T15:08:28.159Z,26.40
2018-09-12T15:10:56.849Z,26.60
2018-09-12T15:13:25.517Z,26.90
2018-09-12T15:15:55.036Z,27.00
2018-09-12T15:18:23.567Z,28.00
2018-09-12T15:20:52.082Z,28.30
2018-09-12T15:23:20.655Z,29.20
2018-09-12T15:25:49.636Z,28.90
2018-09-12T15:28:19.109Z,29.00
2018-09-12T15:30:47.805Z,29.10
2018-09-12T15:33:16.804Z,29.50
2018-09-12T15:35:45.429Z,29.10
2018-09-12T15:38:14.036Z,29.40
2018-09-12T15:40:42.813Z,28.70
2018-09-12T15:43:11.281Z,29.00
2018-09-12T15:45:39.854Z,29.60
2018-09-12T15:48:08.441Z,30.20
2018-09-12T15:50:36.974Z,29.80
2018-09-12T15:53:05.506Z,29.80
2018-09-12T15:55:34.054Z,29.90
2018-09-12T15:58:02.561Z,29.70
2018-09-12T16:00:31.197Z,30.00
2018-09-12T16:03:01.010Z,30.20
2018-09-12T16:05:29.611Z,30.00
2018-09-12T16:07:58.486Z,30.50
2018-09-12T16:10:27.014Z,30.90
2018-09-12T16:12:55.824Z,31.00
2018-09-12T16:15:24.550Z,30.70
2018-09-12T16:17:53.965Z,30.70
2018-09-12T16:20:22.469Z,31.00
2018-09-12T16:22:51.618Z,31.50
2018-09-12T16:25:20.118Z,31.70
2018-09-12T16:27:49.980Z,31.80
2018-09-12T16:30:18.533Z,32.00
2018-09-12T16:32:47.138Z,32.20
2018-09-12T16:35:15.570Z,32.60
2018-09-12T16:37:44.140Z,32.90
2018-09-12T16:40:12.747Z,33.00
2018-09-12T16:42:41.251Z,33.60
2018-09-12T16:45:09.832Z,33.60
2018-09-12T16:47:38.394Z,33.90
2018-09-12T16:50:07.173Z,34.10
2018-09-12T16:52:35.905Z,34.40
2018-09-12T16:55:04.518Z,34.30
2018-09-12T16:57:33.466Z,34.80
2018-09-12T17:00:02.044Z,35.00
2018-09-12T17:02:30.640Z,35.50
2018-09-12T17:04:59.197Z,35.40
2018-09-12T17:07:27.706Z,36.00
2018-09-12T17:09:56.276Z,36.60
2018-09-12T17:12:24.877Z,37.00
2018-09-12T17:14:53.474Z,36.90
2018-09-12T17:17:22.007Z,37.10
2018-09-12T17:19:50.517Z,38.50
2018-09-12T17:22:19.137Z,38.70
2018-09-12T17:24:47.665Z,40.00
2018-09-12T17:27:16.359Z,40.60
2018-09-12T17:29:44.935Z,40.80
2018-09-12T17:32:13.572Z,42.20
2018-09-12T17:34:42.104Z,43.60
2018-09-12T17:37:10.712Z,45.10
2018-09-12T17:39:39.200Z,47.10
2018-09-12T17:42:08.035Z,47.70
2018-09-12T17:44:36.593Z,47.80
2018-09-12T17:47:06.983Z,47.90
2018-09-12T17:49:36.151Z,47.90
2018-09-12T17:52:04.738Z,48.00
2018-09-12T17:54:33.398Z,48.30
2018-09-12T17:57:01.969Z,47.60
2018-09-12T17:59:31.170Z,47.50
2018-09-12T18:02:00.068Z,47.60
2018-09-12T18:04:32.272Z,48.80
2018-09-12T18:07:12.954Z,48.70
2018-09-12T18:09:42.833Z,49.10
2018-09-12T18:12:11.883Z,50.00
2018-09-12T18:14:41.655Z,50.40
2018-09-12T18:17:10.190Z,50.30
2018-09-12T18:19:38.781Z,50.00
2018-09-12T18:22:08.362Z,50.50
2018-09-12T18:24:37.026Z,50.80
2018-09-12T18:27:05.753Z,50.90
2018-09-12T18:29:35.386Z,51.10
2018-09-12T18:32:03.953Z,51.30
2018-09-12T18:34:32.466Z,51.90
2018-09-12T18:37:04.362Z,51.80
2018-09-12T18:39:39.719Z,52.30
2018-09-12T18:42:08.836Z,52.60
2018-09-12T18:44:37.397Z,52.90
2018-09-12T18:47:05.951Z,53.10
2018-09-12T18:49:35.413Z,53.50
2018-09-12T18:52:03.913Z,53.60
2018-09-12T18:54:33.962Z,54.60
2018-09-12T18:57:02.477Z,55.50
2018-09-12T18:59:31.037Z,55.40
2018-09-12T19:01:59.604Z,55.00
2018-09-12T19:04:30.804Z,55.50
2018-09-12T19:06:59.618Z,55.60
2018-09-12T19:09:30.044Z,55.80
2018-09-12T19:12:00.182Z,56.20
2018-09-12T19:15:02.021Z,56.40
2018-09-12T19:17:33.443Z,56.50
2018-09-12T19:20:02.637Z,56.90
2018-09-12T19:22:32.405Z,57.40
2018-09-12T19:25:01.162Z,57.30
2018-09-12T19:27:31.549Z,57.40
2018-09-12T19:30:04.802Z,57.70
2018-09-12T19:32:33.350Z,57.90
2018-09-12T19:35:03.644Z,58.50
2018-09-12T19:37:32.292Z,59.30
2018-09-12T19:40:01.406Z,59.00
2018-09-12T19:42:31.436Z,59.20
2018-09-12T19:45:01.066Z,59.80
2018-09-12T19:47:37.089Z,60.00
2018-09-12T19:50:06.459Z,59.90
2018-09-12T19:52:35.816Z,59.80
2018-09-12T19:55:05.613Z,60.50
2018-09-12T19:57:34.442Z,61.00
2018-09-12T20:00:03.343Z,61.70
2018-09-12T20:02:34.485Z,62.00
2018-09-12T20:05:03.301Z,61.70
2018-09-12T20:07:32.932Z,62.70
2018-09-12T20:10:01.515Z,62.00
2018-09-12T20:12:30.030Z,62.40
2018-09-12T20:14:58.786Z,62.90
2018-09-12T20:17:27.444Z,63.30
2018-09-12T20:19:56.874Z,63.60
2018-09-12T20:22:25.849Z,63.50
2018-09-12T20:24:54.566Z,63.40
2018-09-12T20:27:26.298Z,63.30
2018-09-12T20:29:54.821Z,63.40
2018-09-12T20:32:23.311Z,63.50
2018-09-12T20:34:51.842Z,62.90
2018-09-12T20:37:20.380Z,63.50
2018-09-12T20:39:48.898Z,62.90
2018-09-12T20:42:17.461Z,62.90
2018-09-12T20:44:45.995Z,63.30
2018-09-12T20:47:14.502Z,64.60
2018-09-12T20:49:43.671Z,65.50
2018-09-12T20:52:12.202Z,63.80
2018-09-12T20:54:40.788Z,61.90
2018-09-12T20:57:09.919Z,61.80
2018-09-12T20:59:39.446Z,62.70
2018-09-12T21:02:08.064Z,64.90
2018-09-12T21:04:37.466Z,69.80
2018-09-12T21:07:05.990Z,76.80
2018-09-12T21:09:35.089Z,81.30
2018-09-12T21:12:04.564Z,87.10
2018-09-12T21:14:34.713Z,93.10
2018-09-12T21:17:03.234Z,95.10
2018-09-12T21:19:32.146Z,99.50
2018-09-12T21:22:00.727Z,99.90
2018-09-12T21:24:30.866Z,99.90
2018-09-12T21:26:59.475Z,99.90
2018-09-12T21:29:28.029Z,99.90
2018-09-12T21:31:57.245Z,99.90
2018-09-12T21:34:26.742Z,99.90
2018-09-12T21:36:56.476Z,99.90
2018-09-12T21:39:25.338Z,99.90
2018-09-12T21:41:54.194Z,99.90
2018-09-12T21:44:22.772Z,99.90
2018-09-12T21:46:51.325Z,99.90
2018-09-12T21:49:19.922Z,99.90
2018-09-12T21:51:49.163Z,99.90
2018-09-12T21:54:17.758Z,99.90
2018-09-12T21:56:46.469Z,99.90
2018-09-12T21:59:17.318Z,99.90
2018-09-12T22:01:45.865Z,99.90
2018-09-12T22:04:15.211Z,99.90
2018-09-12T22:06:43.777Z,99.90
2018-09-12T22:09:14.002Z,99.90
2018-09-12T22:11:42.546Z,99.90
2018-09-12T22:14:11.116Z,99.90
2018-09-12T22:16:39.632Z,99.90
2018-09-12T22:19:08.172Z,99.90
2018-09-12T22:21:37.303Z,99.90
2018-09-12T22:24:05.841Z,99.90
2018-09-12T22:26:35.094Z,99.90
2018-09-12T22:29:03.951Z,99.90
2018-09-12T22:31:34.397Z,99.90
2018-09-12T22:34:02.893Z,99.90
2018-09-12T22:36:32.123Z,99.90
2018-09-12T22:39:00.653Z,99.90
2018-09-12T22:41:29.842Z,99.90
2018-09-12T22:43:58.877Z,99.90
2018-09-12T22:46:27.452Z,99.90
2018-09-12T22:48:55.999Z,99.90
2018-09-12T22:51:24.914Z,99.90
2018-09-12T22:53:53.423Z,99.90
2018-09-12T22:56:21.980Z,99.90
2018-09-12T22:58:51.112Z,99.90
2018-09-12T23:01:19.670Z,99.90
2018-09-12T23:03:48.209Z,99.90
2018-09-12T23:06:17.437Z,99.90
2018-09-12T23:08:47.049Z,99.90
2018-09-12T23:11:15.742Z,99.90
2018-09-12T23:13:46.194Z,99.90
2018-09-12T23:16:14.949Z,99.90
2018-09-12T23:18:43.526Z,99.90
2018-09-12T23:21:13.561Z,99.90
2018-09-12T23:23:42.383Z,99.90
2018-09-12T23:26:15.759Z,99.90
2018-09-12T23:28:44.284Z,99.90
2018-09-12T23:31:13.445Z,99.90
2018-09-12T23:33:41.966Z,99.90
2018-09-12T23:36:10.654Z,99.90
2018-09-12T23:38:39.634Z,99.90
2018-09-12T23:41:12.805Z,99.90
2018-09-12T23:43:41.719Z,99.90
2018-09-12T23:46:11.051Z,99.90
2018-09-12T23:49:42.607Z,99.90
2018-09-12T23:52:11.816Z,99.90
2018-09-12T23:54:40.363Z,99.90
2018-09-12T23:57:09.557Z,99.90
2018-09-12T23:59:38.378Z,99.90
